createdAt,value
2022-10-12T00:01:59.970Z,6.65
2022-10-12T00:04:30.931Z,6.69
2022-10-12T00:07:01.964Z,6.74
2022-10-12T00:09:31.334Z,6.74
2022-10-12T00:12:00.559Z,6.76
2022-10-12T00:14:30.642Z,6.80
2022-10-12T00:17:00.110Z,6.82
2022-10-12T00:19:29.347Z,6.85
2022-10-12T00:21:58.586Z,6.88
2022-10-12T00:24:27.830Z,6.87
2022-10-12T00:26:57.087Z,6.85
2022-10-12T00:29:26.821Z,6.87
2022-10-12T00:31:56.077Z,6.86
2022-10-12T00:34:27.367Z,6.84
2022-10-12T00:36:57.484Z,6.83
2022-10-12T00:39:26.718Z,6.80
2022-10-12T00:41:57.516Z,6.79
2022-10-12T00:44:46.357Z,6.80
2022-10-12T00:47:24.204Z,6.78
2022-10-12T00:49:59.350Z,6.73
2022-10-12T00:52:44.550Z,6.69
2022-10-12T00:55:16.369Z,6.67
2022-10-12T00:57:47.403Z,6.67
2022-10-12T01:00:18.083Z,6.65
2022-10-12T01:02:48.860Z,6.62
2022-10-12T01:05:20.001Z,6.59
2022-10-12T01:07:50.126Z,6.59
2022-10-12T01:10:19.728Z,6.62
2022-10-12T01:12:50.324Z,6.58
2022-10-12T01:15:20.561Z,6.57
2022-10-12T01:18:03.421Z,6.57
2022-10-12T01:20:46.929Z,6.54
2022-10-12T01:23:19.739Z,6.50
2022-10-12T01:26:17.970Z,6.47
2022-10-12T01:29:01.038Z,6.46
2022-10-12T01:31:33.580Z,6.45
2022-10-12T01:34:03.714Z,6.43
2022-10-12T01:36:36.315Z,6.42
2022-10-12T01:39:26.450Z,6.42
2022-10-12T01:41:58.489Z,6.37
2022-10-12T01:44:30.080Z,6.36
2022-10-12T01:46:59.590Z,6.30
2022-10-12T01:49:30.906Z,6.27
2022-10-12T01:52:09.765Z,6.23
2022-10-12T01:54:43.634Z,6.23
2022-10-12T01:57:43.363Z,6.23
2022-10-12T02:00:15.089Z,6.21
2022-10-12T02:02:58.222Z,6.19
2022-10-12T02:05:42.656Z,6.20
2022-10-12T02:08:26.637Z,6.13
2022-10-12T02:10:59.049Z,6.06
2022-10-12T02:13:30.719Z,6.00
2022-10-12T02:16:02.166Z,5.97
2022-10-12T02:18:32.092Z,6.00
2022-10-12T02:21:01.652Z,5.99
2022-10-12T02:23:31.081Z,5.99
2022-10-12T02:26:01.773Z,5.99
2022-10-12T02:28:32.166Z,5.99
2022-10-12T02:31:04.934Z,5.98
2022-10-12T02:33:46.167Z,5.94
2022-10-12T02:36:21.504Z,5.91
2022-10-12T02:39:02.593Z,5.91
2022-10-12T02:41:41.051Z,5.86
2022-10-12T02:44:14.329Z,5.83
2022-10-12T02:46:46.928Z,5.81
2022-10-12T02:49:16.832Z,5.81
2022-10-12T02:51:46.683Z,5.80
2022-10-12T02:54:16.781Z,5.76
2022-10-12T02:56:48.180Z,5.76
2022-10-12T02:59:19.427Z,5.76
2022-10-12T03:01:49.077Z,5.77
2022-10-12T03:04:18.436Z,5.77
2022-10-12T03:06:48.014Z,5.80
2022-10-12T03:09:17.304Z,5.84
2022-10-12T03:11:46.585Z,5.84
2022-10-12T03:14:17.472Z,5.83
2022-10-12T03:16:48.164Z,5.84
2022-10-12T03:19:17.400Z,5.88
2022-10-12T03:21:47.120Z,5.93
2022-10-12T03:24:18.162Z,5.94
2022-10-12T03:26:47.406Z,5.94
2022-10-12T03:29:17.015Z,5.96
2022-10-12T03:31:47.905Z,5.99
2022-10-12T03:34:18.488Z,6.02
2022-10-12T03:36:49.411Z,6.00
2022-10-12T03:39:18.687Z,6.00
2022-10-12T03:41:50.740Z,5.98
2022-10-12T03:44:21.281Z,6.01
2022-10-12T03:46:52.287Z,5.99
2022-10-12T03:49:21.728Z,6.00
2022-10-12T03:51:51.111Z,5.97
2022-10-12T03:54:21.096Z,5.94
2022-10-12T03:56:51.905Z,5.90
2022-10-12T03:59:21.130Z,5.90
2022-10-12T04:01:52.106Z,5.89
2022-10-12T04:04:21.693Z,5.90
2022-10-12T04:06:51.183Z,5.88
2022-10-12T04:09:20.585Z,5.87
2022-10-12T04:11:50.374Z,5.84
2022-10-12T04:14:19.818Z,5.84
2022-10-12T04:16:49.059Z,5.88
2022-10-12T04:19:18.422Z,5.88
2022-10-12T04:21:48.061Z,5.81
2022-10-12T04:24:17.441Z,5.82
2022-10-12T04:26:48.345Z,5.78
2022-10-12T04:29:18.385Z,5.75
2022-10-12T04:31:47.791Z,5.72
2022-10-12T04:34:17.005Z,5.71
2022-10-12T04:36:46.489Z,5.67
2022-10-12T04:39:15.712Z,5.66
2022-10-12T04:41:45.201Z,5.66
2022-10-12T04:44:14.445Z,5.63
2022-10-12T04:46:43.842Z,5.62
2022-10-12T04:49:13.447Z,5.65
2022-10-12T04:51:44.315Z,5.64
2022-10-12T04:54:13.648Z,5.64
2022-10-12T04:56:47.961Z,5.67
2022-10-12T04:59:14.739Z,5.67
2022-10-12T05:01:44.845Z,5.69
2022-10-12T05:04:14.798Z,5.72
2022-10-12T05:06:45.900Z,5.75
2022-10-12T05:09:17.101Z,5.77
2022-10-12T05:11:48.481Z,5.78
2022-10-12T05:14:17.857Z,5.76
2022-10-12T05:16:47.988Z,5.74
2022-10-12T05:19:18.905Z,5.71
2022-10-12T05:21:48.159Z,5.73
2022-10-12T05:24:19.015Z,5.71
2022-10-12T05:26:48.247Z,5.71
2022-10-12T05:29:17.797Z,5.71
2022-10-12T05:31:47.512Z,5.70
2022-10-12T05:34:17.122Z,5.67
2022-10-12T05:36:46.366Z,5.69
2022-10-12T05:39:15.608Z,5.70
2022-10-12T05:41:45.757Z,5.70
2022-10-12T05:44:15.019Z,5.70
2022-10-12T05:46:44.340Z,5.70
2022-10-12T05:49:13.848Z,5.72
2022-10-12T05:51:43.274Z,5.72
2022-10-12T05:54:12.760Z,5.74
2022-10-12T05:56:43.386Z,5.75
2022-10-12T05:59:12.998Z,5.77
2022-10-12T06:01:42.454Z,5.80
2022-10-12T06:04:12.929Z,5.79
2022-10-12T06:06:43.860Z,5.78
2022-10-12T06:09:13.376Z,5.78
2022-10-12T06:11:43.706Z,5.78
2022-10-12T06:14:13.177Z,5.71
2022-10-12T06:16:43.721Z,5.74
2022-10-12T06:19:13.640Z,5.75
2022-10-12T06:21:42.919Z,5.77
2022-10-12T06:24:12.513Z,5.75
2022-10-12T06:26:41.883Z,5.77
2022-10-12T06:29:13.091Z,5.80
2022-10-12T06:31:45.556Z,5.81
2022-10-12T06:34:14.362Z,5.83
2022-10-12T06:36:44.439Z,5.81
2022-10-12T06:39:14.087Z,5.80
2022-10-12T06:41:43.383Z,5.79
2022-10-12T06:44:12.794Z,5.80
2022-10-12T06:46:42.218Z,5.85
2022-10-12T06:49:12.102Z,5.84
2022-10-12T06:51:41.460Z,5.87
2022-10-12T06:54:11.180Z,5.90
2022-10-12T06:56:42.005Z,5.91
2022-10-12T06:59:13.671Z,5.95
2022-10-12T07:01:43.000Z,5.95
2022-10-12T07:04:15.516Z,5.95
2022-10-12T07:06:45.114Z,6.00
2022-10-12T07:09:15.172Z,6.00
2022-10-12T07:11:44.579Z,6.05
2022-10-12T07:14:14.235Z,6.11
2022-10-12T07:16:43.844Z,6.21
2022-10-12T07:19:13.206Z,6.29
2022-10-12T07:21:44.027Z,6.39
2022-10-12T07:24:14.204Z,6.49
2022-10-12T07:26:45.487Z,6.62
2022-10-12T07:29:15.998Z,6.66
2022-10-12T07:31:49.848Z,6.71
2022-10-12T07:34:17.715Z,6.78
2022-10-12T07:36:59.266Z,6.82
2022-10-12T07:39:20.457Z,6.89
2022-10-12T07:41:52.270Z,6.90
2022-10-12T07:44:22.840Z,6.91
2022-10-12T07:46:52.237Z,7.01
2022-10-12T07:49:21.712Z,7.13
2022-10-12T07:51:51.135Z,7.28
2022-10-12T07:54:24.500Z,7.42
2022-10-12T07:56:53.430Z,7.61
2022-10-12T07:59:22.877Z,7.77
2022-10-12T08:01:52.316Z,7.97
2022-10-12T08:04:21.756Z,8.05
2022-10-12T08:06:51.315Z,8.31
2022-10-12T08:09:22.661Z,8.47
2022-10-12T08:11:53.276Z,8.56
2022-10-12T08:14:22.825Z,8.80
2022-10-12T08:16:52.079Z,8.99
2022-10-12T08:19:21.670Z,9.22
2022-10-12T08:21:52.535Z,9.33
2022-10-12T08:24:25.175Z,9.72
2022-10-12T08:26:55.939Z,10.19
2022-10-12T08:29:24.709Z,11.80
2022-10-12T08:31:54.670Z,14.05
2022-10-12T08:34:25.232Z,16.34
2022-10-12T08:36:54.804Z,15.82
2022-10-12T08:39:24.126Z,17.21
2022-10-12T08:42:02.863Z,16.59
2022-10-12T08:44:59.338Z,15.55
2022-10-12T08:47:51.729Z,16.19
2022-10-12T08:50:33.942Z,15.24
2022-10-12T08:53:06.450Z,14.41
2022-10-12T08:55:37.254Z,14.65
2022-10-12T08:58:11.049Z,15.08
2022-10-12T09:00:40.361Z,16.20
2022-10-12T09:03:26.150Z,16.10
2022-10-12T09:06:04.465Z,15.90
2022-10-12T09:08:46.014Z,15.90
2022-10-12T09:11:30.891Z,17.76
2022-10-12T09:14:06.486Z,18.28
2022-10-12T09:16:39.088Z,18.44
2022-10-12T09:19:24.833Z,20.08
2022-10-12T09:21:54.089Z,19.12
2022-10-12T09:24:33.030Z,19.33
2022-10-12T09:27:05.432Z,19.71
2022-10-12T09:29:36.216Z,20.43
2022-10-12T09:32:08.640Z,19.99
2022-10-12T09:34:39.111Z,19.34
2022-10-12T09:37:13.360Z,19.83
2022-10-12T09:39:42.923Z,20.73
2022-10-12T09:42:12.597Z,17.98
2022-10-12T09:44:44.849Z,17.25
2022-10-12T09:47:28.926Z,18.08
2022-10-12T09:50:04.291Z,18.57
2022-10-12T09:52:42.525Z,19.19
2022-10-12T09:55:19.690Z,19.49
2022-10-12T09:58:00.344Z,18.66
2022-10-12T10:00:34.902Z,19.54
2022-10-12T10:03:04.895Z,20.33
2022-10-12T10:05:39.143Z,20.82
2022-10-12T10:08:24.650Z,22.62
2022-10-12T10:10:57.439Z,23.54
2022-10-12T10:13:30.877Z,24.04
2022-10-12T10:16:08.896Z,25.33
2022-10-12T10:18:45.078Z,24.13
2022-10-12T10:21:17.853Z,23.77
2022-10-12T10:24:05.369Z,22.76
2022-10-12T10:26:54.482Z,22.91
2022-10-12T10:29:39.117Z,24.23
2022-10-12T10:32:14.692Z,23.68
2022-10-12T10:34:44.194Z,24.15
2022-10-12T10:37:19.541Z,23.71
2022-10-12T10:39:54.248Z,22.56
2022-10-12T10:42:29.184Z,22.71
2022-10-12T10:45:04.635Z,22.51
2022-10-12T10:47:35.537Z,21.13
2022-10-12T10:50:06.687Z,21.28
2022-10-12T10:52:37.309Z,22.08
2022-10-12T10:55:12.686Z,22.51
2022-10-12T10:57:47.663Z,22.88
2022-10-12T11:00:37.880Z,22.91
2022-10-12T11:02:56.680Z,22.10
2022-10-12T11:05:31.815Z,21.98
2022-10-12T11:08:04.126Z,19.99
2022-10-12T11:10:47.982Z,19.85
2022-10-12T11:13:32.336Z,18.76
2022-10-12T11:16:10.544Z,19.83
2022-10-12T11:18:49.380Z,20.85
2022-10-12T11:21:27.769Z,20.85
2022-10-12T11:24:21.426Z,19.90
2022-10-12T11:27:10.711Z,18.95
2022-10-12T11:29:41.984Z,16.83
2022-10-12T11:32:29.316Z,17.02
2022-10-12T11:35:07.829Z,16.38
2022-10-12T11:37:40.754Z,15.99
2022-10-12T11:40:14.856Z,15.88
2022-10-12T11:42:44.330Z,15.50
2022-10-12T11:45:29.983Z,15.27
2022-10-12T11:48:14.384Z,15.58
2022-10-12T11:50:47.738Z,15.09
2022-10-12T11:53:52.252Z,15.24
2022-10-12T11:56:27.334Z,16.73
2022-10-12T11:59:06.856Z,17.24
2022-10-12T12:01:52.365Z,17.79
2022-10-12T12:04:42.672Z,16.78
2022-10-12T12:06:58.895Z,17.63
2022-10-12T12:09:34.419Z,17.80
2022-10-12T12:12:25.375Z,17.47
2022-10-12T12:14:57.903Z,16.74
2022-10-12T12:17:31.740Z,16.43
2022-10-12T12:20:01.252Z,16.10
2022-10-12T12:22:39.819Z,15.95
2022-10-12T12:25:13.055Z,15.76
2022-10-12T12:27:45.002Z,16.13
2022-10-12T12:30:24.420Z,16.17
2022-10-12T12:32:59.203Z,15.77
2022-10-12T12:35:43.823Z,15.80
2022-10-12T12:38:17.309Z,15.63
2022-10-12T12:40:58.123Z,15.54
2022-10-12T12:43:36.235Z,15.51
2022-10-12T12:46:08.259Z,15.50
2022-10-12T12:48:46.715Z,15.31
2022-10-12T12:51:21.938Z,15.43
2022-10-12T12:54:15.443Z,15.32
2022-10-12T12:56:53.861Z,15.24
2022-10-12T12:59:46.613Z,15.05
2022-10-12T13:02:43.239Z,15.01
2022-10-12T13:05:43.327Z,14.97
2022-10-12T13:08:30.578Z,14.95
2022-10-12T13:11:08.955Z,15.05
2022-10-12T13:13:51.017Z,14.98
2022-10-12T13:17:31.388Z,15.02
2022-10-12T13:19:28.170Z,15.17
2022-10-12T13:21:59.830Z,15.21
2022-10-12T13:24:34.644Z,15.40
2022-10-12T13:27:23.763Z,15.58
2022-10-12T13:30:01.656Z,16.11
2022-10-12T13:32:37.392Z,15.84
2022-10-12T13:35:26.545Z,16.05
2022-10-12T13:38:16.711Z,16.22
2022-10-12T13:40:51.545Z,17.13
2022-10-12T13:43:30.052Z,17.46
2022-10-12T13:45:59.378Z,17.81
2022-10-12T13:48:57.489Z,17.79
2022-10-12T13:51:04.401Z,17.71
2022-10-12T13:53:36.733Z,16.93
2022-10-12T13:56:11.964Z,16.21
2022-10-12T13:58:41.549Z,16.10
2022-10-12T14:01:14.730Z,16.05
2022-10-12T14:03:45.604Z,15.86
2022-10-12T14:06:35.317Z,15.71
2022-10-12T14:09:16.992Z,16.43
2022-10-12T14:11:47.762Z,16.35
2022-10-12T14:14:37.562Z,16.11
2022-10-12T14:17:07.671Z,15.56
2022-10-12T14:19:43.098Z,15.77
2022-10-12T14:22:15.728Z,15.70
2022-10-12T14:24:45.387Z,15.65
2022-10-12T14:27:24.064Z,15.76
2022-10-12T14:29:56.848Z,15.51
2022-10-12T14:32:37.870Z,15.52
2022-10-12T14:35:27.403Z,15.48
2022-10-12T14:37:57.520Z,15.46
2022-10-12T14:40:30.356Z,15.54
2022-10-12T14:43:09.744Z,15.34
2022-10-12T14:45:39.289Z,15.34
2022-10-12T14:48:15.015Z,15.32
2022-10-12T14:50:44.841Z,15.28
2022-10-12T14:53:15.517Z,15.12
2022-10-12T14:55:45.324Z,15.29
2022-10-12T14:58:17.488Z,15.25
2022-10-12T15:00:46.965Z,15.22
2022-10-12T15:03:18.221Z,15.29
2022-10-12T15:05:47.544Z,15.20
2022-10-12T15:08:16.907Z,15.06
2022-10-12T15:10:47.258Z,15.13
2022-10-12T15:13:16.521Z,15.10
2022-10-12T15:15:48.492Z,14.92
2022-10-12T15:18:17.823Z,14.89
2022-10-12T15:20:49.817Z,14.84
2022-10-12T15:23:19.340Z,14.69
2022-10-12T15:26:00.016Z,14.85
2022-10-12T15:28:30.080Z,14.82
2022-10-12T15:31:16.835Z,14.77
2022-10-12T15:33:33.518Z,14.82
2022-10-12T15:36:03.350Z,14.91
2022-10-12T15:38:32.993Z,15.01
2022-10-12T15:41:02.390Z,14.99
2022-10-12T15:43:33.712Z,15.00
2022-10-12T15:46:03.038Z,15.05
2022-10-12T15:48:32.277Z,14.99
2022-10-12T15:51:01.662Z,14.88
2022-10-12T15:53:31.804Z,14.79
2022-10-12T15:56:01.188Z,14.73
2022-10-12T15:58:30.453Z,14.54
2022-10-12T16:00:59.788Z,14.46
2022-10-12T16:03:30.791Z,14.46
2022-10-12T16:06:00.846Z,14.39
2022-10-12T16:08:30.259Z,14.39
2022-10-12T16:10:59.864Z,14.38
2022-10-12T16:13:29.520Z,14.39
2022-10-12T16:15:58.788Z,14.39
2022-10-12T16:18:29.438Z,14.38
2022-10-12T16:20:58.781Z,14.40
2022-10-12T16:23:33.306Z,14.35
2022-10-12T16:26:12.469Z,14.29
2022-10-12T16:28:42.605Z,14.25
2022-10-12T16:31:17.876Z,14.16
2022-10-12T16:33:47.330Z,13.98
2022-10-12T16:36:17.779Z,13.89
2022-10-12T16:38:47.213Z,13.66
2022-10-12T16:41:20.747Z,13.48
2022-10-12T16:43:49.699Z,13.28
2022-10-12T16:46:19.070Z,13.10
2022-10-12T16:48:48.421Z,12.99
2022-10-12T16:51:17.801Z,12.93
2022-10-12T16:53:47.043Z,12.80
2022-10-12T16:56:16.355Z,12.67
2022-10-12T16:58:45.776Z,12.55
2022-10-12T17:01:15.164Z,12.38
2022-10-12T17:03:44.612Z,12.22
2022-10-12T17:06:14.096Z,12.07
2022-10-12T17:08:43.495Z,11.94
2022-10-12T17:11:17.027Z,11.84
2022-10-12T17:13:49.167Z,11.72
2022-10-12T17:16:35.795Z,11.60
2022-10-12T17:19:05.235Z,11.50
2022-10-12T17:21:35.417Z,11.40
2022-10-12T17:24:05.019Z,11.29
2022-10-12T17:26:40.089Z,11.19
2022-10-12T17:29:07.592Z,11.12
2022-10-12T17:31:37.795Z,11.05
2022-10-12T17:34:07.409Z,11.01
2022-10-12T17:36:37.173Z,10.99
2022-10-12T17:39:06.412Z,10.93
2022-10-12T17:41:35.650Z,10.87
2022-10-12T17:44:05.069Z,10.79
2022-10-12T17:46:34.335Z,10.70
2022-10-12T17:49:04.574Z,10.67
2022-10-12T17:51:34.004Z,10.62
2022-10-12T17:54:03.410Z,10.61
2022-10-12T17:56:33.033Z,10.64
2022-10-12T17:59:04.349Z,10.62
2022-10-12T18:01:34.584Z,10.57
2022-10-12T18:04:04.958Z,10.51
2022-10-12T18:06:35.091Z,10.50
2022-10-12T18:09:05.403Z,10.49
2022-10-12T18:11:35.464Z,10.47
2022-10-12T18:14:04.991Z,10.38
2022-10-12T18:16:35.099Z,10.37
2022-10-12T18:19:07.549Z,10.37
2022-10-12T18:21:37.203Z,10.34
2022-10-12T18:24:14.895Z,10.32
2022-10-12T18:26:41.926Z,10.35
2022-10-12T18:29:11.197Z,10.36
2022-10-12T18:31:40.889Z,10.36
2022-10-12T18:34:10.431Z,10.37
2022-10-12T18:36:41.345Z,10.37
2022-10-12T18:39:10.767Z,10.40
2022-10-12T18:41:40.522Z,10.40
2022-10-12T18:44:12.292Z,10.41
2022-10-12T18:46:41.736Z,10.37
2022-10-12T18:49:12.910Z,10.34
2022-10-12T18:51:46.149Z,10.31
2022-10-12T18:54:17.331Z,10.29
2022-10-12T18:56:47.178Z,10.25
2022-10-12T18:59:20.603Z,10.24
2022-10-12T19:01:49.933Z,10.16
2022-10-12T19:04:21.100Z,10.23
2022-10-12T19:06:55.561Z,10.18
2022-10-12T19:09:22.363Z,10.13
2022-10-12T19:11:51.779Z,10.06
2022-10-12T19:14:21.324Z,9.98
2022-10-12T19:16:52.054Z,9.92
2022-10-12T19:19:21.898Z,9.87
2022-10-12T19:21:52.355Z,9.82
2022-10-12T19:24:22.535Z,9.76
2022-10-12T19:26:51.946Z,9.74
2022-10-12T19:29:21.502Z,9.66
2022-10-12T19:31:52.155Z,9.62
2022-10-12T19:34:23.622Z,9.62
2022-10-12T19:36:53.200Z,9.63
2022-10-12T19:39:24.355Z,9.66
2022-10-12T19:41:54.080Z,9.69
2022-10-12T19:44:23.595Z,9.73
2022-10-12T19:46:55.044Z,9.79
2022-10-12T19:49:24.527Z,9.86
2022-10-12T19:51:54.055Z,9.90
2022-10-12T19:54:23.715Z,9.93
2022-10-12T19:56:53.163Z,9.99
2022-10-12T19:59:22.606Z,10.02
2022-10-12T20:01:52.059Z,10.09
2022-10-12T20:04:21.378Z,10.12
2022-10-12T20:06:50.769Z,10.15
2022-10-12T20:09:20.181Z,10.18
2022-10-12T20:11:49.753Z,10.17
2022-10-12T20:14:19.130Z,10.14
2022-10-12T20:16:48.687Z,10.09
2022-10-12T20:19:18.563Z,10.01
2022-10-12T20:21:48.224Z,9.96
2022-10-12T20:24:18.765Z,9.91
2022-10-12T20:26:48.126Z,9.87
2022-10-12T20:29:17.896Z,9.86
2022-10-12T20:31:47.392Z,9.82
2022-10-12T20:34:16.742Z,9.76
2022-10-12T20:36:46.371Z,9.71
2022-10-12T20:39:15.861Z,9.66
2022-10-12T20:41:46.285Z,9.63
2022-10-12T20:44:15.691Z,9.59
2022-10-12T20:46:48.416Z,9.58
2022-10-12T20:49:18.087Z,9.55
2022-10-12T20:51:47.438Z,9.52
2022-10-12T20:54:18.883Z,9.53
2022-10-12T20:56:50.080Z,9.54
2022-10-12T20:59:20.389Z,9.51
2022-10-12T21:01:49.836Z,9.51
2022-10-12T21:04:19.181Z,9.57
2022-10-12T21:06:48.507Z,9.66
2022-10-12T21:09:18.194Z,9.73
2022-10-12T21:11:47.721Z,9.84
2022-10-12T21:14:17.059Z,9.93
2022-10-12T21:16:46.770Z,9.98
2022-10-12T21:19:17.392Z,10.08
2022-10-12T21:21:47.148Z,10.13
2022-10-12T21:24:16.723Z,10.15
2022-10-12T21:26:46.401Z,10.25
2022-10-12T21:29:15.751Z,10.36
2022-10-12T21:31:45.264Z,10.40
2022-10-12T21:34:14.747Z,10.44
2022-10-12T21:36:44.046Z,10.48
2022-10-12T21:39:16.298Z,10.55
2022-10-12T21:41:45.649Z,10.57
2022-10-12T21:44:15.115Z,10.60
2022-10-12T21:46:44.443Z,10.65
2022-10-12T21:49:16.382Z,10.68
2022-10-12T21:51:46.074Z,10.70
2022-10-12T21:54:16.488Z,10.77
2022-10-12T21:56:45.953Z,10.79
2022-10-12T21:59:18.256Z,10.78
2022-10-12T22:01:47.747Z,10.80
2022-10-12T22:04:17.482Z,10.82
2022-10-12T22:06:46.737Z,10.89
2022-10-12T22:09:19.304Z,10.92
2022-10-12T22:11:50.261Z,10.97
2022-10-12T22:14:20.175Z,10.97
2022-10-12T22:16:49.647Z,10.97
2022-10-12T22:19:19.759Z,10.97
2022-10-12T22:21:51.342Z,10.94
2022-10-12T22:24:22.010Z,10.94
2022-10-12T22:26:51.425Z,10.96
2022-10-12T22:29:22.421Z,10.96
2022-10-12T22:31:51.753Z,10.96
2022-10-12T22:34:21.196Z,11.02
2022-10-12T22:36:50.545Z,11.02
2022-10-12T22:39:23.367Z,11.10
2022-10-12T22:41:52.814Z,11.15
2022-10-12T22:44:22.528Z,11.15
2022-10-12T22:46:53.725Z,11.21
2022-10-12T22:49:23.278Z,11.32
2022-10-12T22:51:52.622Z,11.48
2022-10-12T22:54:22.037Z,11.54
2022-10-12T22:56:54.566Z,11.67
2022-10-12T22:59:24.054Z,11.63
2022-10-12T23:01:53.375Z,11.62
2022-10-12T23:04:24.006Z,11.62
2022-10-12T23:06:53.569Z,11.62
2022-10-12T23:09:22.858Z,11.68
2022-10-12T23:11:52.536Z,11.66
2022-10-12T23:14:21.995Z,11.59
2022-10-12T23:16:51.273Z,11.60
2022-10-12T23:19:20.730Z,11.56
2022-10-12T23:21:50.079Z,11.56
2022-10-12T23:24:20.455Z,11.59
2022-10-12T23:26:49.853Z,11.56
2022-10-12T23:29:19.216Z,11.51
2022-10-12T23:31:48.776Z,11.49
2022-10-12T23:34:18.203Z,11.45
2022-10-12T23:36:49.360Z,11.41
2022-10-12T23:39:18.755Z,11.37
2022-10-12T23:41:48.167Z,11.43
2022-10-12T23:44:18.025Z,11.43
2022-10-12T23:46:47.474Z,11.46
2022-10-12T23:49:17.224Z,11.47
2022-10-12T23:51:46.631Z,11.41
2022-10-12T23:54:16.300Z,11.42
2022-10-12T23:56:46.923Z,11.38
2022-10-12T23:59:16.430Z,11.42
